sensor_id;sensor_type;location;lat;lon;timestamp;pressure;altitude;pressure_sealevel;temperature;humidity
71559;BME280;59382;43.852;25.952;2023-05-08T00:01:58;101362.06;;;18.93;39.36
71559;BME280;59382;43.852;25.952;2023-05-08T00:04:24;101381.78;;;19.12;39.65
71559;BME280;59382;43.852;25.952;2023-05-08T00:06:49;101366.38;;;19.06;39.45
71559;BME280;59382;43.852;25.952;2023-05-08T00:09:18;101380.25;;;19.21;39.36
71559;BME280;59382;43.852;25.952;2023-05-08T00:11:43;101384.66;;;19.22;39.57
71559;BME280;59382;43.852;25.952;2023-05-08T00:14:09;101373.13;;;19.20;39.36
71559;BME280;59382;43.852;25.952;2023-05-08T00:16:34;101356.63;;;19.15;39.36
71559;BME280;59382;43.852;25.952;2023-05-08T00:19:00;101371.16;;;19.32;39.14
71559;BME280;59382;43.852;25.952;2023-05-08T00:21:26;101375.28;;;19.34;39.02
71559;BME280;59382;43.852;25.952;2023-05-08T00:23:54;101365.16;;;19.35;39.14
71559;BME280;59382;43.852;25.952;2023-05-08T00:26:19;101356.81;;;19.25;39.12
71559;BME280;59382;43.852;25.952;2023-05-08T00:28:46;101369.63;;;19.24;39.13
71559;BME280;59382;43.852;25.952;2023-05-08T00:31:11;101341.31;;;19.14;39.72
71559;BME280;59382;43.852;25.952;2023-05-08T00:33:38;101356.13;;;19.18;39.80
71559;BME280;59382;43.852;25.952;2023-05-08T00:36:04;101371.47;;;19.19;40.15
71559;BME280;59382;43.852;25.952;2023-05-08T00:38:33;101361.53;;;19.13;40.36
71559;BME280;59382;43.852;25.952;2023-05-08T00:40:59;101369.81;;;19.18;40.29
71559;BME280;59382;43.852;25.952;2023-05-08T00:43:26;101367.66;;;19.20;40.26
71559;BME280;59382;43.852;25.952;2023-05-08T00:45:57;101373.63;;;19.17;40.42
71559;BME280;59382;43.852;25.952;2023-05-08T00:48:24;101370.25;;;19.10;40.48
71559;BME280;59382;43.852;25.952;2023-05-08T00:50:51;101361.91;;;19.00;40.77
71559;BME280;59382;43.852;25.952;2023-05-08T00:53:17;101335.38;;;18.84;40.48
71559;BME280;59382;43.852;25.952;2023-05-08T00:55:43;101364.06;;;18.98;40.22
71559;BME280;59382;43.852;25.952;2023-05-08T00:58:10;101371.00;;;19.05;39.87
71559;BME280;59382;43.852;25.952;2023-05-08T01:00:38;101366.03;;;19.02;39.59
71559;BME280;59382;43.852;25.952;2023-05-08T01:03:06;101362.41;;;18.97;39.44
71559;BME280;59382;43.852;25.952;2023-05-08T01:05:32;101362.81;;;18.89;39.16
71559;BME280;59382;43.852;25.952;2023-05-08T01:07:57;101354.13;;;18.75;39.21
71559;BME280;59382;43.852;25.952;2023-05-08T01:10:25;101349.50;;;18.76;39.09
71559;BME280;59382;43.852;25.952;2023-05-08T01:12:58;101347.75;;;18.70;38.98
71559;BME280;59382;43.852;25.952;2023-05-08T01:15:34;101350.50;;;18.70;38.90
71559;BME280;59382;43.852;25.952;2023-05-08T01:24:06;101355.38;;;18.84;38.68
71559;BME280;59382;43.852;25.952;2023-05-08T01:32:41;101339.63;;;18.75;39.38
71559;BME280;59382;43.852;25.952;2023-05-08T01:38:06;101322.81;;;18.66;39.86
71559;BME280;59382;43.852;25.952;2023-05-08T01:41:05;101324.16;;;18.64;39.43
71559;BME280;59382;43.852;25.952;2023-05-08T01:46:23;101326.31;;;18.62;39.00
71559;BME280;59382;43.852;25.952;2023-05-08T01:51:48;101320.03;;;18.61;38.92
71559;BME280;59382;43.852;25.952;2023-05-08T01:54:23;101321.16;;;18.65;38.94
71559;BME280;59382;43.852;25.952;2023-05-08T01:56:53;101323.06;;;18.65;38.94
71559;BME280;59382;43.852;25.952;2023-05-08T01:59:22;101330.28;;;18.71;38.89
71559;BME280;59382;43.852;25.952;2023-05-08T02:01:51;101334.75;;;18.77;39.32
71559;BME280;59382;43.852;25.952;2023-05-08T02:04:18;101339.72;;;18.80;39.48
71559;BME280;59382;43.852;25.952;2023-05-08T02:06:45;101338.06;;;18.79;39.86
71559;BME280;59382;43.852;25.952;2023-05-08T02:09:11;101337.22;;;18.78;40.03
71559;BME280;59382;43.852;25.952;2023-05-08T02:11:38;101339.06;;;18.73;40.43
71559;BME280;59382;43.852;25.952;2023-05-08T02:14:06;101348.81;;;18.69;40.51
71559;BME280;59382;43.852;25.952;2023-05-08T02:16:33;101338.72;;;18.53;40.89
71559;BME280;59382;43.852;25.952;2023-05-08T02:19:00;101357.28;;;18.51;41.24
71559;BME280;59382;43.852;25.952;2023-05-08T02:21:27;101350.34;;;18.43;41.39
71559;BME280;59382;43.852;25.952;2023-05-08T02:23:55;101364.56;;;18.45;41.52
71559;BME280;59382;43.852;25.952;2023-05-08T02:26:23;101375.34;;;18.52;41.36
71559;BME280;59382;43.852;25.952;2023-05-08T02:28:52;101358.28;;;18.45;41.17
71559;BME280;59382;43.852;25.952;2023-05-08T02:31:19;101370.97;;;18.51;41.14
71559;BME280;59382;43.852;25.952;2023-05-08T02:33:46;101380.66;;;18.58;41.42
71559;BME280;59382;43.852;25.952;2023-05-08T02:36:16;101374.34;;;18.58;41.48
71559;BME280;59382;43.852;25.952;2023-05-08T02:38:49;101366.91;;;18.53;41.49
71559;BME280;59382;43.852;25.952;2023-05-08T02:41:18;101384.78;;;18.61;41.36
71559;BME280;59382;43.852;25.952;2023-05-08T02:43:47;101388.38;;;18.61;41.74
71559;BME280;59382;43.852;25.952;2023-05-08T02:54:39;101383.63;;;18.57;40.94
71559;BME280;59382;43.852;25.952;2023-05-08T02:57:52;101394.56;;;18.57;40.71
71559;BME280;59382;43.852;25.952;2023-05-08T03:00:34;101392.91;;;18.56;40.10
71559;BME280;59382;43.852;25.952;2023-05-08T03:05:42;101399.69;;;18.53;39.94
71559;BME280;59382;43.852;25.952;2023-05-08T03:08:14;101392.22;;;18.49;40.08
71559;BME280;59382;43.852;25.952;2023-05-08T03:10:42;101380.94;;;18.45;39.71
71559;BME280;59382;43.852;25.952;2023-05-08T03:13:11;101394.88;;;18.44;39.78
71559;BME280;59382;43.852;25.952;2023-05-08T03:15:43;101395.84;;;18.38;40.07
71559;BME280;59382;43.852;25.952;2023-05-08T03:18:15;101388.03;;;18.30;40.84
71559;BME280;59382;43.852;25.952;2023-05-08T03:20:47;101400.03;;;18.29;41.04
71559;BME280;59382;43.852;25.952;2023-05-08T03:23:15;101398.44;;;18.16;41.25
71559;BME280;59382;43.852;25.952;2023-05-08T03:25:42;101383.66;;;18.01;41.52
71559;BME280;59382;43.852;25.952;2023-05-08T03:28:09;101400.50;;;17.98;41.51
71559;BME280;59382;43.852;25.952;2023-05-08T03:30:36;101378.03;;;17.79;41.85
71559;BME280;59382;43.852;25.952;2023-05-08T03:33:03;101407.44;;;17.89;42.14
71559;BME280;59382;43.852;25.952;2023-05-08T03:35:30;101392.50;;;17.80;42.03
71559;BME280;59382;43.852;25.952;2023-05-08T03:37:56;101410.06;;;17.84;42.23
71559;BME280;59382;43.852;25.952;2023-05-08T03:40:22;101408.88;;;17.80;42.57
71559;BME280;59382;43.852;25.952;2023-05-08T03:42:48;101407.03;;;17.69;42.53
71559;BME280;59382;43.852;25.952;2023-05-08T03:45:15;101431.19;;;17.77;42.51
71559;BME280;59382;43.852;25.952;2023-05-08T03:47:43;101434.69;;;17.72;42.46
71559;BME280;59382;43.852;25.952;2023-05-08T03:50:08;101427.69;;;17.65;42.44
71559;BME280;59382;43.852;25.952;2023-05-08T03:52:34;101418.91;;;17.63;42.57
71559;BME280;59382;43.852;25.952;2023-05-08T03:55:00;101417.84;;;17.52;42.36
71559;BME280;59382;43.852;25.952;2023-05-08T03:57:34;101417.84;;;17.52;42.50
71559;BME280;59382;43.852;25.952;2023-05-08T04:00:13;101416.53;;;17.54;42.28
71559;BME280;59382;43.852;25.952;2023-05-08T04:03:28;101432.44;;;17.57;42.28
71559;BME280;59382;43.852;25.952;2023-05-08T04:06:07;101426.75;;;17.47;41.89
71559;BME280;59382;43.852;25.952;2023-05-08T04:08:52;101440.16;;;17.49;41.60
71559;BME280;59382;43.852;25.952;2023-05-08T04:11:27;101446.94;;;17.46;41.67
71559;BME280;59382;43.852;25.952;2023-05-08T04:14:01;101433.38;;;17.40;41.63
71559;BME280;59382;43.852;25.952;2023-05-08T04:16:27;101438.22;;;17.38;41.79
71559;BME280;59382;43.852;25.952;2023-05-08T04:19:02;101413.38;;;17.23;41.63
71559;BME280;59382;43.852;25.952;2023-05-08T04:21:33;101443.22;;;17.41;41.65
71559;BME280;59382;43.852;25.952;2023-05-08T04:24:00;101445.25;;;17.45;41.75
71559;BME280;59382;43.852;25.952;2023-05-08T04:26:28;101445.63;;;17.49;41.77
71559;BME280;59382;43.852;25.952;2023-05-08T04:28:54;101448.59;;;17.47;41.83
71559;BME280;59382;43.852;25.952;2023-05-08T04:31:20;101449.28;;;17.54;41.64
71559;BME280;59382;43.852;25.952;2023-05-08T04:33:46;101440.63;;;17.57;41.53
71559;BME280;59382;43.852;25.952;2023-05-08T04:36:13;101426.28;;;17.50;41.54
71559;BME280;59382;43.852;25.952;2023-05-08T04:38:39;101439.09;;;17.62;41.20
71559;BME280;59382;43.852;25.952;2023-05-08T04:41:06;101438.38;;;17.54;41.50
71559;BME280;59382;43.852;25.952;2023-05-08T04:43:32;101434.13;;;17.58;41.23
71559;BME280;59382;43.852;25.952;2023-05-08T04:45:58;101424.84;;;17.59;41.27
71559;BME280;59382;43.852;25.952;2023-05-08T04:48:23;101432.06;;;17.66;41.25
71559;BME280;59382;43.852;25.952;2023-05-08T04:50:49;101422.94;;;17.72;41.28
71559;BME280;59382;43.852;25.952;2023-05-08T04:53:14;101430.41;;;17.76;41.17
71559;BME280;59382;43.852;25.952;2023-05-08T04:55:40;101450.63;;;17.92;41.07
71559;BME280;59382;43.852;25.952;2023-05-08T04:58:06;101439.72;;;17.92;41.00
71559;BME280;59382;43.852;25.952;2023-05-08T05:00:33;101422.66;;;17.85;40.91
71559;BME280;59382;43.852;25.952;2023-05-08T05:02:58;101434.25;;;17.92;40.96
71559;BME280;59382;43.852;25.952;2023-05-08T05:05:24;101425.13;;;17.86;40.88
71559;BME280;59382;43.852;25.952;2023-05-08T05:07:49;101435.94;;;17.93;40.89
71559;BME280;59382;43.852;25.952;2023-05-08T05:10:15;101411.38;;;17.81;41.08
71559;BME280;59382;43.852;25.952;2023-05-08T05:12:40;101438.75;;;17.98;41.03
71559;BME280;59382;43.852;25.952;2023-05-08T05:15:06;101401.78;;;17.79;41.32
71559;BME280;59382;43.852;25.952;2023-05-08T05:17:32;101444.94;;;18.05;41.35
71559;BME280;59382;43.852;25.952;2023-05-08T05:19:57;101439.94;;;18.02;41.38
71559;BME280;59382;43.852;25.952;2023-05-08T05:22:24;101432.31;;;18.04;41.27
71559;BME280;59382;43.852;25.952;2023-05-08T05:24:49;101424.03;;;17.99;41.59
71559;BME280;59382;43.852;25.952;2023-05-08T05:27:15;101430.66;;;18.03;41.47
71559;BME280;59382;43.852;25.952;2023-05-08T05:29:41;101411.13;;;17.94;41.69
71559;BME280;59382;43.852;25.952;2023-05-08T05:32:07;101418.91;;;18.02;41.63
71559;BME280;59382;43.852;25.952;2023-05-08T05:34:34;101427.75;;;18.21;41.45
71559;BME280;59382;43.852;25.952;2023-05-08T05:37:00;101425.69;;;18.28;41.43
71559;BME280;59382;43.852;25.952;2023-05-08T05:39:25;101410.69;;;18.30;41.47
71559;BME280;59382;43.852;25.952;2023-05-08T05:41:51;101426.13;;;18.48;41.25
71559;BME280;59382;43.852;25.952;2023-05-08T05:44:17;101424.03;;;18.55;41.24
71559;BME280;59382;43.852;25.952;2023-05-08T05:46:42;101439.13;;;18.74;41.14
71559;BME280;59382;43.852;25.952;2023-05-08T05:49:08;101437.16;;;18.86;40.78
71559;BME280;59382;43.852;25.952;2023-05-08T05:51:33;101423.00;;;18.89;40.74
71559;BME280;59382;43.852;25.952;2023-05-08T05:53:59;101415.13;;;18.92;40.54
71559;BME280;59382;43.852;25.952;2023-05-08T05:56:24;101410.97;;;18.90;40.45
71559;BME280;59382;43.852;25.952;2023-05-08T05:58:50;101402.19;;;18.88;40.34
71559;BME280;59382;43.852;25.952;2023-05-08T06:01:16;101407.97;;;18.91;40.27
71559;BME280;59382;43.852;25.952;2023-05-08T06:03:42;101409.66;;;18.92;39.90
71559;BME280;59382;43.852;25.952;2023-05-08T06:06:07;101421.00;;;19.01;39.55
71559;BME280;59382;43.852;25.952;2023-05-08T06:08:33;101409.97;;;18.96;39.62
71559;BME280;59382;43.852;25.952;2023-05-08T06:10:58;101417.91;;;19.14;39.63
71559;BME280;59382;43.852;25.952;2023-05-08T06:13:24;101416.06;;;19.36;39.36
71559;BME280;59382;43.852;25.952;2023-05-08T06:15:49;101397.91;;;19.68;39.20
71559;BME280;59382;43.852;25.952;2023-05-08T06:18:15;101402.53;;;20.11;38.39
71559;BME280;59382;43.852;25.952;2023-05-08T06:20:41;101376.94;;;20.22;37.97
71559;BME280;59382;43.852;25.952;2023-05-08T06:23:07;101404.31;;;20.48;37.84
71559;BME280;59382;43.852;25.952;2023-05-08T06:25:33;101412.38;;;20.60;37.64
71559;BME280;59382;43.852;25.952;2023-05-08T06:27:59;101408.59;;;20.66;37.27
71559;BME280;59382;43.852;25.952;2023-05-08T06:30:24;101401.72;;;20.63;37.53
71559;BME280;59382;43.852;25.952;2023-05-08T06:32:50;101406.09;;;20.64;37.35
71559;BME280;59382;43.852;25.952;2023-05-08T06:35:15;101405.16;;;20.80;37.05
71559;BME280;59382;43.852;25.952;2023-05-08T06:37:43;101400.66;;;20.96;36.83
71559;BME280;59382;43.852;25.952;2023-05-08T06:40:09;101407.63;;;21.13;36.90
71559;BME280;59382;43.852;25.952;2023-05-08T06:42:35;101385.66;;;21.13;36.62
71559;BME280;59382;43.852;25.952;2023-05-08T06:45:03;101380.19;;;21.13;36.40
71559;BME280;59382;43.852;25.952;2023-05-08T06:47:28;101393.41;;;21.21;36.65
71559;BME280;59382;43.852;25.952;2023-05-08T06:49:54;101388.50;;;21.28;36.55
71559;BME280;59382;43.852;25.952;2023-05-08T06:52:20;101388.00;;;21.31;36.25
71559;BME280;59382;43.852;25.952;2023-05-08T06:54:46;101388.34;;;21.45;36.40
71559;BME280;59382;43.852;25.952;2023-05-08T06:57:11;101388.16;;;21.67;36.68
71559;BME280;59382;43.852;25.952;2023-05-08T06:59:40;101389.31;;;21.76;36.73
71559;BME280;59382;43.852;25.952;2023-05-08T07:02:06;101393.22;;;21.80;36.79
71559;BME280;59382;43.852;25.952;2023-05-08T07:04:34;101397.09;;;21.89;36.74
71559;BME280;59382;43.852;25.952;2023-05-08T07:06:59;101390.78;;;21.98;36.69
71559;BME280;59382;43.852;25.952;2023-05-08T07:09:24;101383.38;;;21.99;36.30
71559;BME280;59382;43.852;25.952;2023-05-08T07:11:50;101388.34;;;22.12;36.20
71559;BME280;59382;43.852;25.952;2023-05-08T07:14:16;101394.44;;;22.34;35.86
71559;BME280;59382;43.852;25.952;2023-05-08T07:16:41;101392.25;;;22.41;35.76
71559;BME280;59382;43.852;25.952;2023-05-08T07:19:07;101403.31;;;22.61;35.28
71559;BME280;59382;43.852;25.952;2023-05-08T07:21:32;101406.06;;;22.71;35.19
71559;BME280;59382;43.852;25.952;2023-05-08T07:23:57;101412.94;;;22.78;34.85
71559;BME280;59382;43.852;25.952;2023-05-08T07:26:23;101408.00;;;22.75;34.55
71559;BME280;59382;43.852;25.952;2023-05-08T07:28:49;101404.97;;;22.67;34.37
71559;BME280;59382;43.852;25.952;2023-05-08T07:31:15;101407.16;;;22.65;34.17
71559;BME280;59382;43.852;25.952;2023-05-08T07:33:41;101409.91;;;22.65;34.11
71559;BME280;59382;43.852;25.952;2023-05-08T07:36:06;101400.28;;;22.52;34.24
71559;BME280;59382;43.852;25.952;2023-05-08T07:38:32;101400.81;;;22.49;34.28
71559;BME280;59382;43.852;25.952;2023-05-08T07:40:57;101410.75;;;22.55;34.30
71559;BME280;59382;43.852;25.952;2023-05-08T07:43:24;101408.25;;;22.64;34.25
71559;BME280;59382;43.852;25.952;2023-05-08T07:45:49;101418.16;;;22.80;34.08
71559;BME280;59382;43.852;25.952;2023-05-08T07:48:15;101402.22;;;22.92;34.04
71559;BME280;59382;43.852;25.952;2023-05-08T07:50:40;101397.53;;;23.02;33.29
71559;BME280;59382;43.852;25.952;2023-05-08T07:53:06;101403.28;;;23.11;33.60
71559;BME280;59382;43.852;25.952;2023-05-08T07:55:31;101409.34;;;23.08;33.56
71559;BME280;59382;43.852;25.952;2023-05-08T07:57:57;101381.03;;;22.77;33.96
71559;BME280;59382;43.852;25.952;2023-05-08T08:00:23;101406.63;;;22.88;34.11
71559;BME280;59382;43.852;25.952;2023-05-08T08:02:51;101409.91;;;22.80;34.38
71559;BME280;59382;43.852;25.952;2023-05-08T08:05:17;101423.13;;;22.63;34.48
71559;BME280;59382;43.852;25.952;2023-05-08T08:07:43;101428.84;;;22.36;35.07
71559;BME280;59382;43.852;25.952;2023-05-08T08:10:09;101404.81;;;22.02;35.18
71559;BME280;59382;43.852;25.952;2023-05-08T08:12:35;101428.38;;;21.83;35.61
71559;BME280;59382;43.852;25.952;2023-05-08T08:15:01;101413.38;;;21.54;35.60
71559;BME280;59382;43.852;25.952;2023-05-08T08:17:26;101408.22;;;21.20;36.08
71559;BME280;59382;43.852;25.952;2023-05-08T08:19:52;101420.19;;;21.04;36.37
71559;BME280;59382;43.852;25.952;2023-05-08T08:22:18;101421.22;;;20.98;37.04
71559;BME280;59382;43.852;25.952;2023-05-08T08:24:43;101428.25;;;20.84;37.28
71559;BME280;59382;43.852;25.952;2023-05-08T08:27:09;101416.50;;;20.62;37.46
71559;BME280;59382;43.852;25.952;2023-05-08T08:29:34;101431.88;;;20.63;37.79
71559;BME280;59382;43.852;25.952;2023-05-08T08:32:00;101425.47;;;20.53;37.90
71559;BME280;59382;43.852;25.952;2023-05-08T08:34:27;101429.09;;;20.58;38.16
71559;BME280;59382;43.852;25.952;2023-05-08T08:36:53;101430.72;;;20.59;37.75
71559;BME280;59382;43.852;25.952;2023-05-08T08:39:18;101442.34;;;20.66;37.78
71559;BME280;59382;43.852;25.952;2023-05-08T08:41:44;101421.38;;;20.55;37.89
71559;BME280;59382;43.852;25.952;2023-05-08T08:44:09;101430.72;;;20.59;38.20
71559;BME280;59382;43.852;25.952;2023-05-08T08:46:39;101425.22;;;20.54;38.58
71559;BME280;59382;43.852;25.952;2023-05-08T08:49:08;101433.28;;;20.66;38.61
71559;BME280;59382;43.852;25.952;2023-05-08T08:51:45;101424.09;;;20.50;38.81
71559;BME280;59382;43.852;25.952;2023-05-08T08:54:20;101431.16;;;20.46;39.20
71559;BME280;59382;43.852;25.952;2023-05-08T08:56:48;101434.38;;;20.38;39.58
71559;BME280;59382;43.852;25.952;2023-05-08T08:59:15;101432.03;;;20.25;39.73
71559;BME280;59382;43.852;25.952;2023-05-08T09:01:44;101445.22;;;20.28;39.98
71559;BME280;59382;43.852;25.952;2023-05-08T09:04:10;101443.50;;;20.22;40.24
71559;BME280;59382;43.852;25.952;2023-05-08T09:06:36;101447.34;;;20.21;40.19
71559;BME280;59382;43.852;25.952;2023-05-08T09:09:03;101441.72;;;20.11;40.44
71559;BME280;59382;43.852;25.952;2023-05-08T09:11:28;101449.94;;;20.11;40.26
71559;BME280;59382;43.852;25.952;2023-05-08T09:13:55;101432.91;;;20.09;40.13
71559;BME280;59382;43.852;25.952;2023-05-08T09:16:21;101437.16;;;20.17;39.89
71559;BME280;59382;43.852;25.952;2023-05-08T09:18:47;101442.38;;;20.18;39.92
71559;BME280;59382;43.852;25.952;2023-05-08T09:21:13;101435.75;;;20.14;40.10
71559;BME280;59382;43.852;25.952;2023-05-08T09:23:58;101457.28;;;20.27;40.13
71559;BME280;59382;43.852;25.952;2023-05-08T09:29:18;101462.88;;;20.37;40.52
71559;BME280;59382;43.852;25.952;2023-05-08T09:31:51;101465.59;;;20.37;41.04
71559;BME280;59382;43.852;25.952;2023-05-08T09:34:25;101450.34;;;20.20;41.19
71559;BME280;59382;43.852;25.952;2023-05-08T09:39:34;101460.09;;;20.32;41.65
71559;BME280;59382;43.852;25.952;2023-05-08T09:42:02;101448.38;;;20.42;41.61
71559;BME280;59382;43.852;25.952;2023-05-08T09:44:28;101446.13;;;20.60;41.87
71559;BME280;59382;43.852;25.952;2023-05-08T09:47:14;101467.72;;;20.83;41.57
71559;BME280;59382;43.852;25.952;2023-05-08T09:52:22;101454.88;;;20.89;41.53
71559;BME280;59382;43.852;25.952;2023-05-08T09:54:59;101457.47;;;21.00;41.85
71559;BME280;59382;43.852;25.952;2023-05-08T09:57:30;101458.59;;;21.04;42.10
71559;BME280;59382;43.852;25.952;2023-05-08T10:02:31;101461.94;;;21.06;42.55
71559;BME280;59382;43.852;25.952;2023-05-08T10:04:57;101459.66;;;20.98;43.17
71559;BME280;59382;43.852;25.952;2023-05-08T10:07:35;101446.81;;;20.77;43.44
71559;BME280;59382;43.852;25.952;2023-05-08T10:10:05;101459.97;;;20.75;43.81
71559;BME280;59382;43.852;25.952;2023-05-08T10:12:32;101463.09;;;20.57;44.18
71559;BME280;59382;43.852;25.952;2023-05-08T10:14:58;101471.16;;;20.42;44.34
71559;BME280;59382;43.852;25.952;2023-05-08T10:17:26;101476.41;;;20.22;44.41
71559;BME280;59382;43.852;25.952;2023-05-08T10:19:59;101476.81;;;19.93;44.68
71559;BME280;59382;43.852;25.952;2023-05-08T10:22:27;101483.31;;;19.65;45.07
71559;BME280;59382;43.852;25.952;2023-05-08T10:24:56;101499.25;;;19.52;45.67
71559;BME280;59382;43.852;25.952;2023-05-08T10:27:30;101497.03;;;19.32;45.69
71559;BME280;59382;43.852;25.952;2023-05-08T10:30:02;101499.50;;;19.17;45.63
71559;BME280;59382;43.852;25.952;2023-05-08T10:32:36;101505.94;;;19.11;46.02
71559;BME280;59382;43.852;25.952;2023-05-08T10:35:04;101507.44;;;19.02;46.09
71559;BME280;59382;43.852;25.952;2023-05-08T10:37:32;101496.34;;;18.92;46.45
71559;BME280;59382;43.852;25.952;2023-05-08T10:40:01;101496.97;;;18.82;46.16
71559;BME280;59382;43.852;25.952;2023-05-08T10:42:27;101499.94;;;18.81;46.52
71559;BME280;59382;43.852;25.952;2023-05-08T10:44:53;101495.16;;;18.71;46.53
71559;BME280;59382;43.852;25.952;2023-05-08T10:55:28;101511.81;;;18.42;47.99
71559;BME280;59382;43.852;25.952;2023-05-08T10:58:11;101501.09;;;18.29;48.11
71559;BME280;59382;43.852;25.952;2023-05-08T11:05:51;101499.53;;;18.05;48.32
71559;BME280;59382;43.852;25.952;2023-05-08T11:08:18;101497.88;;;18.04;48.45
71559;BME280;59382;43.852;25.952;2023-05-08T11:11:11;101533.97;;;18.06;48.55
71559;BME280;59382;43.852;25.952;2023-05-08T11:13:43;101506.94;;;17.93;48.96
71559;BME280;59382;43.852;25.952;2023-05-08T11:16:11;101522.47;;;17.92;49.03
71559;BME280;59382;43.852;25.952;2023-05-08T11:18:37;101529.72;;;17.87;49.06
71559;BME280;59382;43.852;25.952;2023-05-08T11:21:04;101533.03;;;17.89;49.29
71559;BME280;59382;43.852;25.952;2023-05-08T11:23:34;101534.00;;;17.83;49.78
71559;BME280;59382;43.852;25.952;2023-05-08T11:26:12;101543.72;;;17.90;50.12
71559;BME280;59382;43.852;25.952;2023-05-08T11:28:55;101533.41;;;17.81;50.30
71559;BME280;59382;43.852;25.952;2023-05-08T11:31:22;101537.78;;;17.82;50.36
71559;BME280;59382;43.852;25.952;2023-05-08T11:33:48;101529.25;;;17.67;50.57
71559;BME280;59382;43.852;25.952;2023-05-08T11:36:16;101550.16;;;17.73;51.11
71559;BME280;59382;43.852;25.952;2023-05-08T11:38:43;101560.25;;;17.72;51.67
71559;BME280;59382;43.852;25.952;2023-05-08T11:41:29;101553.25;;;17.65;52.07
71559;BME280;59382;43.852;25.952;2023-05-08T11:49:09;101558.75;;;17.35;53.61
71559;BME280;59382;43.852;25.952;2023-05-08T11:51:35;101565.88;;;17.24;54.12
71559;BME280;59382;43.852;25.952;2023-05-08T11:54:03;101564.09;;;17.18;54.64
71559;BME280;59382;43.852;25.952;2023-05-08T11:56:29;101570.59;;;17.17;55.05
71559;BME280;59382;43.852;25.952;2023-05-08T11:59:14;101556.69;;;17.07;55.88
71559;BME280;59382;43.852;25.952;2023-05-08T12:01:40;101553.09;;;16.95;56.89
71559;BME280;59382;43.852;25.952;2023-05-08T12:04:08;101573.84;;;16.96;57.55
71559;BME280;59382;43.852;25.952;2023-05-08T12:06:35;101574.88;;;16.84;57.69
71559;BME280;59382;43.852;25.952;2023-05-08T12:09:09;101588.16;;;16.92;58.27
71559;BME280;59382;43.852;25.952;2023-05-08T12:11:35;101585.19;;;16.82;58.52
71559;BME280;59382;43.852;25.952;2023-05-08T12:14:00;101570.22;;;16.73;59.12
71559;BME280;59382;43.852;25.952;2023-05-08T12:16:26;101574.53;;;16.62;59.38
71559;BME280;59382;43.852;25.952;2023-05-08T12:18:52;101573.44;;;16.52;59.80
71559;BME280;59382;43.852;25.952;2023-05-08T12:21:18;101567.28;;;16.38;60.47
71559;BME280;59382;43.852;25.952;2023-05-08T12:23:45;101572.88;;;16.25;60.84
71559;BME280;59382;43.852;25.952;2023-05-08T12:26:11;101575.94;;;16.17;61.53
71559;BME280;59382;43.852;25.952;2023-05-08T12:28:37;101568.06;;;16.09;61.96
71559;BME280;59382;43.852;25.952;2023-05-08T12:31:03;101569.88;;;15.97;62.07
71559;BME280;59382;43.852;25.952;2023-05-08T12:33:28;101581.97;;;16.01;62.38
71559;BME280;59382;43.852;25.952;2023-05-08T12:35:55;101576.22;;;15.91;62.81
71559;BME280;59382;43.852;25.952;2023-05-08T12:38:27;101581.34;;;15.81;62.68
71559;BME280;59382;43.852;25.952;2023-05-08T12:40:54;101547.16;;;15.67;63.50
71559;BME280;59382;43.852;25.952;2023-05-08T12:43:20;101568.25;;;15.71;63.82
71559;BME280;59382;43.852;25.952;2023-05-08T12:45:54;101579.81;;;15.67;63.94
71559;BME280;59382;43.852;25.952;2023-05-08T12:48:20;101573.16;;;15.63;64.41
71559;BME280;59382;43.852;25.952;2023-05-08T12:50:46;101564.06;;;15.51;64.27
71559;BME280;59382;43.852;25.952;2023-05-08T12:53:14;101565.25;;;15.55;64.70
71559;BME280;59382;43.852;25.952;2023-05-08T12:55:49;101572.22;;;15.51;64.95
71559;BME280;59382;43.852;25.952;2023-05-08T12:58:19;101579.31;;;15.52;64.81
71559;BME280;59382;43.852;25.952;2023-05-08T13:00:47;101559.94;;;15.42;64.98
71559;BME280;59382;43.852;25.952;2023-05-08T13:03:28;101559.34;;;15.40;65.24
71559;BME280;59382;43.852;25.952;2023-05-08T13:05:56;101551.66;;;15.37;65.16
71559;BME280;59382;43.852;25.952;2023-05-08T13:10:55;101554.91;;;15.45;65.18
71559;BME280;59382;43.852;25.952;2023-05-08T13:13:23;101553.22;;;15.44;65.11
71559;BME280;59382;43.852;25.952;2023-05-08T13:15:49;101540.31;;;15.40;65.32
71559;BME280;59382;43.852;25.952;2023-05-08T13:18:16;101578.63;;;15.56;65.23
71559;BME280;59382;43.852;25.952;2023-05-08T13:20:42;101553.19;;;15.51;65.13
71559;BME280;59382;43.852;25.952;2023-05-08T13:23:08;101561.94;;;15.53;65.31
71559;BME280;59382;43.852;25.952;2023-05-08T13:25:35;101566.09;;;15.55;65.53
71559;BME280;59382;43.852;25.952;2023-05-08T13:28:02;101566.94;;;15.56;65.56
71559;BME280;59382;43.852;25.952;2023-05-08T13:30:28;101579.94;;;15.54;65.53
71559;BME280;59382;43.852;25.952;2023-05-08T13:32:54;101556.16;;;15.43;65.79
71559;BME280;59382;43.852;25.952;2023-05-08T13:35:20;101540.56;;;15.32;66.13
71559;BME280;59382;43.852;25.952;2023-05-08T13:37:46;101555.72;;;15.46;66.11
71559;BME280;59382;43.852;25.952;2023-05-08T13:40:13;101558.66;;;15.44;66.25
71559;BME280;59382;43.852;25.952;2023-05-08T13:42:38;101537.84;;;15.32;66.25
71559;BME280;59382;43.852;25.952;2023-05-08T13:45:05;101536.13;;;15.37;66.37
71559;BME280;59382;43.852;25.952;2023-05-08T13:47:31;101558.00;;;15.49;66.20
71559;BME280;59382;43.852;25.952;2023-05-08T13:49:57;101542.28;;;15.51;66.31